Time;durP1;ratioP1;P1;durP2;ratioP2;P2;SDS_P1;SDS_P2;PMS_P1;PMS_P2;Temp;Humidity;BMP_temperature;BMP_pressure;BME280_temperature;BME280_humidity;BME280_pressure;Samples;Min_cycle;Max_cycle;Signal;HPM_P1;HPM_P2
2022/07/12 00:01:40;;;;;;;3.15;2.08;;;21.70;93.60;;;;;;5053245;28;20430;-67
2022/07/12 00:04:07;;;;;;;4.72;2.25;;;21.70;93.80;;;;;;5053246;28;20481;-67
2022/07/12 00:06:34;;;;;;;3.10;2.08;;;21.60;94.30;;;;;;5053211;28;20127;-67
2022/07/12 00:09:00;;;;;;;3.03;2.25;;;21.60;94.80;;;;;;5053361;28;20496;-67
2022/07/12 00:11:27;;;;;;;3.53;2.10;;;21.60;94.80;;;;;;5053031;28;20041;-67
2022/07/12 00:13:54;;;;;;;2.50;1.67;;;21.60;95.00;;;;;;5052172;28;20056;-68
2022/07/12 00:16:22;;;;;;;3.33;2.42;;;21.50;95.40;;;;;;5052927;28;20480;-68
2022/07/12 00:18:50;;;;;;;3.92;2.53;;;21.60;95.80;;;;;;5052069;28;20041;-68
2022/07/12 00:21:16;;;;;;;4.18;2.30;;;21.50;96.10;;;;;;5053447;28;20453;-68
2022/07/12 00:23:43;;;;;;;3.72;2.03;;;21.50;96.80;;;;;;5053243;28;20041;-67
2022/07/12 00:26:10;;;;;;;4.22;2.97;;;21.50;96.90;;;;;;5053296;28;20045;-68
2022/07/12 00:28:37;;;;;;;5.38;2.10;;;21.40;96.80;;;;;;5051931;28;20046;-67
2022/07/12 00:31:04;;;;;;;21.75;2.70;;;21.40;97.10;;;;;;5052994;28;20045;-67
2022/07/12 00:33:31;;;;;;;2.90;2.05;;;21.40;97.40;;;;;;5051787;28;20045;-67
2022/07/12 00:35:58;;;;;;;3.45;2.50;;;21.30;97.70;;;;;;5053382;28;20056;-68
2022/07/12 00:38:26;;;;;;;4.78;2.58;;;21.30;97.80;;;;;;5052720;28;20357;-67
2022/07/12 00:40:53;;;;;;;4.00;2.20;;;21.20;98.10;;;;;;5052770;28;20091;-68
2022/07/12 00:43:20;;;;;;;5.68;2.60;;;21.20;98.60;;;;;;5051853;28;20495;-68
2022/07/12 00:45:47;;;;;;;4.50;2.10;;;21.20;99.00;;;;;;5052832;28;20040;-68
2022/07/12 00:48:14;;;;;;;5.50;2.58;;;21.20;99.40;;;;;;5051583;28;20052;-68
2022/07/12 00:50:45;;;;;;;4.20;2.00;;;21.10;99.80;;;;;;5051719;28;20041;-68
2022/07/12 00:53:12;;;;;;;3.65;2.10;;;21.10;99.80;;;;;;5053049;28;20107;-68
2022/07/12 00:55:39;;;;;;;4.53;2.28;;;21.10;99.90;;;;;;5051698;28;20041;-68
2022/07/12 00:58:06;;;;;;;4.18;2.30;;;21.20;99.90;;;;;;5052597;28;20047;-67
2022/07/12 01:00:33;;;;;;;3.45;2.25;;;21.10;99.90;;;;;;5051836;28;20048;-68
2022/07/12 01:03:02;;;;;;;4.68;2.40;;;21.10;99.90;;;;;;5051696;28;20139;-68
2022/07/12 01:05:29;;;;;;;4.20;2.30;;;21.10;99.90;;;;;;5051736;28;20136;-67
2022/07/12 01:07:56;;;;;;;3.10;2.10;;;21.00;99.90;;;;;;5034885;28;20493;-68
2022/07/12 01:10:23;;;;;;;3.92;1.92;;;21.00;99.90;;;;;;5051741;28;20439;-68
2022/07/12 01:12:50;;;;;;;3.25;2.15;;;21.00;99.90;;;;;;5051291;28;20040;-67
2022/07/12 01:15:18;;;;;;;3.10;2.10;;;20.90;99.90;;;;;;5053281;28;20052;-68
2022/07/12 01:17:46;;;;;;;2.90;1.90;;;20.80;99.90;;;;;;5051895;28;20037;-68
2022/07/12 01:20:18;;;;;;;3.90;1.95;;;20.80;99.90;;;;;;5053531;28;20049;-67
2022/07/12 01:22:53;;;;;;;2.55;1.92;;;20.70;99.90;;;;;;5051526;28;20051;-67
2022/07/12 01:25:21;;;;;;;3.92;2.17;;;20.70;99.90;;;;;;5053134;28;20052;-67
2022/07/12 01:27:48;;;;;;;3.40;2.13;;;20.60;99.90;;;;;;5052323;28;20048;-67
2022/07/12 01:30:15;;;;;;;3.42;2.25;;;20.60;99.90;;;;;;5052236;28;20070;-67
2022/07/12 01:32:42;;;;;;;4.70;2.38;;;20.60;99.90;;;;;;5055085;28;20045;-68
2022/07/12 01:35:10;;;;;;;6.53;2.15;;;20.60;99.90;;;;;;5056252;28;20049;-68
2022/07/12 01:37:38;;;;;;;4.65;2.72;;;20.60;99.90;;;;;;5054902;28;20499;-67
2022/07/12 01:40:06;;;;;;;2.78;1.80;;;20.50;99.90;;;;;;5054919;28;20048;-68
2022/07/12 01:42:33;;;;;;;3.83;2.30;;;20.50;99.90;;;;;;5055321;28;20110;-68
2022/07/12 01:45:00;;;;;;;2.78;2.10;;;20.50;99.90;;;;;;5054563;28;20542;-67
2022/07/12 01:47:29;;;;;;;3.45;2.22;;;20.50;99.90;;;;;;5054598;28;20051;-67
2022/07/12 01:49:56;;;;;;;3.10;2.00;;;20.40;99.90;;;;;;5054835;28;20060;-67
2022/07/12 01:52:23;;;;;;;3.33;2.28;;;20.40;99.90;;;;;;5056882;28;20045;-67
2022/07/12 01:54:50;;;;;;;2.85;2.08;;;20.40;99.90;;;;;;5054695;28;20045;-67
2022/07/12 01:57:17;;;;;;;9.57;2.30;;;20.30;99.90;;;;;;5054601;28;20485;-67
2022/07/12 01:59:45;;;;;;;3.55;2.00;;;20.30;99.90;;;;;;5054893;28;20040;-67
2022/07/12 02:02:11;;;;;;;3.72;1.90;;;20.30;99.90;;;;;;5054174;28;20040;-67
2022/07/12 02:04:38;;;;;;;3.58;2.40;;;20.20;99.90;;;;;;5055448;28;20477;-67
2022/07/12 02:07:05;;;;;;;2.70;1.65;;;20.20;99.90;;;;;;5054409;28;20064;-67
2022/07/12 02:09:32;;;;;;;3.67;2.53;;;20.10;99.90;;;;;;5055695;28;20056;-67
2022/07/12 02:11:59;;;;;;;2.60;1.98;;;20.00;99.90;;;;;;5055397;28;20053;-67
2022/07/12 02:14:26;;;;;;;2.45;1.90;;;20.00;99.90;;;;;;5054028;28;20167;-67
2022/07/12 02:16:53;;;;;;;5.47;2.53;;;20.00;99.90;;;;;;5054067;28;20049;-67
2022/07/12 02:19:20;;;;;;;4.13;2.10;;;20.00;99.90;;;;;;5054213;28;20044;-67
2022/07/12 02:21:47;;;;;;;2.75;2.00;;;20.00;99.90;;;;;;5055109;28;20048;-67
2022/07/12 02:24:14;;;;;;;2.72;1.98;;;19.90;99.90;;;;;;5055392;28;20048;-67
2022/07/12 02:26:41;;;;;;;3.15;2.25;;;20.00;99.90;;;;;;5055246;28;20127;-67
2022/07/12 02:29:08;;;;;;;4.00;2.25;;;19.90;99.90;;;;;;5054191;28;20051;-67
2022/07/12 02:31:35;;;;;;;3.08;2.05;;;20.00;99.90;;;;;;5054964;28;20037;-67
2022/07/12 02:34:02;;;;;;;3.25;1.80;;;20.00;99.90;;;;;;5054828;28;20045;-67
2022/07/12 02:36:29;;;;;;;3.42;1.90;;;20.00;99.90;;;;;;5053775;28;20057;-67
2022/07/12 02:38:56;;;;;;;3.97;2.10;;;20.00;99.90;;;;;;5055168;28;20048;-67
2022/07/12 02:41:24;;;;;;;4.43;2.25;;;20.00;99.90;;;;;;5054218;28;20037;-67
2022/07/12 02:43:51;;;;;;;3.23;2.30;;;20.00;99.90;;;;;;5054209;28;20560;-67
2022/07/12 02:46:18;;;;;;;3.33;1.85;;;19.90;99.90;;;;;;5054607;28;20465;-67
2022/07/12 02:48:45;;;;;;;3.15;2.00;;;19.90;99.90;;;;;;5055654;28;20052;-67
2022/07/12 02:51:13;;;;;;;5.18;2.38;;;20.00;99.90;;;;;;5053664;28;20051;-67
2022/07/12 02:53:40;;;;;;;2.85;2.30;;;20.00;99.90;;;;;;5037972;28;20058;-67
2022/07/12 02:56:08;;;;;;;2.75;2.30;;;20.00;99.90;;;;;;5053659;28;20048;-67
2022/07/12 02:58:36;;;;;;;3.47;2.20;;;20.00;99.90;;;;;;5054627;28;20082;-67
2022/07/12 03:01:03;;;;;;;3.83;2.00;;;20.10;99.90;;;;;;5054319;28;20128;-68
2022/07/12 03:03:30;;;;;;;3.55;2.35;;;20.00;99.90;;;;;;5036919;28;20079;-68
2022/07/12 03:05:58;;;;;;;4.10;1.83;;;20.00;99.90;;;;;;5054446;28;20049;-67
2022/07/12 03:08:25;;;;;;;4.28;1.80;;;19.90;99.90;;;;;;5053347;28;20431;-67
2022/07/12 03:10:52;;;;;;;3.75;2.17;;;19.90;99.90;;;;;;5054228;28;20048;-67
2022/07/12 03:13:18;;;;;;;3.30;2.58;;;19.80;99.90;;;;;;5053457;28;20040;-67
2022/07/12 03:15:45;;;;;;;3.80;2.42;;;19.80;99.90;;;;;;5054286;28;20388;-67
2022/07/12 03:18:13;;;;;;;2.85;2.20;;;19.70;99.90;;;;;;5053967;28;20439;-67
2022/07/12 03:20:40;;;;;;;4.53;2.33;;;19.70;99.90;;;;;;5052699;28;20084;-67
2022/07/12 03:23:07;;;;;;;4.13;2.85;;;19.60;99.90;;;;;;5054365;28;20040;-67
2022/07/12 03:25:35;;;;;;;3.67;2.72;;;19.60;99.90;;;;;;5054034;28;20131;-67
2022/07/12 03:28:02;;;;;;;3.58;2.22;;;19.50;99.90;;;;;;5052951;28;20037;-67
2022/07/12 03:30:29;;;;;;;4.18;2.30;;;19.50;99.90;;;;;;5052943;28;20059;-67
2022/07/12 03:32:56;;;;;;;4.88;2.50;;;19.40;99.90;;;;;;5054066;28;20135;-67
2022/07/12 03:35:23;;;;;;;3.63;2.30;;;19.40;99.90;;;;;;5054269;28;20467;-67
2022/07/12 03:37:51;;;;;;;2.83;2.13;;;19.40;99.90;;;;;;5054555;28;20045;-67
2022/07/12 03:40:19;;;;;;;3.50;2.40;;;19.40;99.90;;;;;;5052973;28;20048;-67
2022/07/12 03:42:46;;;;;;;3.83;2.20;;;19.40;99.90;;;;;;5052318;28;20041;-67
2022/07/12 03:45:13;;;;;;;4.20;2.20;;;19.40;99.90;;;;;;5052279;28;20473;-67
2022/07/12 03:47:40;;;;;;;4.07;2.30;;;19.30;99.90;;;;;;5052285;28;20051;-67
2022/07/12 03:50:13;;;;;;;5.75;3.05;;;19.30;99.90;;;;;;5052620;28;20065;-67
2022/07/12 03:52:41;;;;;;;4.05;2.50;;;19.40;99.90;;;;;;5053251;28;20055;-67
2022/07/12 03:55:11;;;;;;;3.42;2.30;;;19.40;99.90;;;;;;5052036;28;20052;-68
2022/07/12 03:57:38;;;;;;;5.90;2.63;;;19.40;99.90;;;;;;5052129;28;20099;-68
2022/07/12 04:00:08;;;;;;;3.60;2.28;;;19.40;99.90;;;;;;5052534;28;20045;-68
2022/07/12 04:02:35;;;;;;;4.05;2.65;;;19.40;99.90;;;;;;5052683;28;20048;-68
2022/07/12 04:05:02;;;;;;;4.32;2.40;;;19.40;99.90;;;;;;5052355;28;20048;-67
2022/07/12 04:07:29;;;;;;;4.95;2.55;;;19.40;99.90;;;;;;5054023;28;20068;-67
2022/07/12 04:09:56;;;;;;;4.05;2.60;;;19.40;99.90;;;;;;5053436;28;20041;-68
2022/07/12 04:12:23;;;;;;;5.53;3.05;;;19.40;99.90;;;;;;5053125;28;20052;-68
2022/07/12 04:14:50;;;;;;;4.20;2.53;;;19.40;99.90;;;;;;5051915;28;20433;-68
2022/07/12 04:17:17;;;;;;;3.45;2.47;;;19.40;99.90;;;;;;5053387;28;20037;-68
2022/07/12 04:19:43;;;;;;;4.47;2.38;;;19.40;99.90;;;;;;5053926;28;20091;-68
2022/07/12 04:22:10;;;;;;;3.67;2.35;;;19.40;99.90;;;;;;5053010;28;20056;-68
2022/07/12 04:24:37;;;;;;;4.35;2.47;;;19.40;99.90;;;;;;5052986;28;20037;-67
2022/07/12 04:27:04;;;;;;;5.13;3.13;;;19.50;99.90;;;;;;5053316;28;20049;-67
2022/07/12 04:29:31;;;;;;;4.15;2.95;;;19.50;99.90;;;;;;5053576;28;20048;-68
2022/07/12 04:31:58;;;;;;;3.88;2.70;;;19.50;99.90;;;;;;5051918;28;20045;-67
2022/07/12 04:34:25;;;;;;;4.13;2.60;;;19.50;99.90;;;;;;5054021;28;20052;-68
2022/07/12 04:36:53;;;;;;;4.05;2.45;;;19.60;99.90;;;;;;5053249;28;20056;-68
2022/07/12 04:39:19;;;;;;;4.55;2.50;;;19.60;99.90;;;;;;5053226;28;20349;-68
2022/07/12 04:41:46;;;;;;;6.40;3.13;;;19.60;99.90;;;;;;5051964;28;20056;-68
2022/07/12 04:44:13;;;;;;;5.07;2.60;;;19.60;99.90;;;;;;5036400;28;20052;-68
2022/07/12 04:46:40;;;;;;;2.95;2.20;;;19.70;99.90;;;;;;5052785;28;20045;-68
2022/07/12 04:49:07;;;;;;;4.28;2.53;;;19.70;99.90;;;;;;5053079;28;20127;-68
2022/07/12 04:51:34;;;;;;;3.05;2.28;;;19.70;99.90;;;;;;5053117;28;20055;-68
2022/07/12 04:54:01;;;;;;;3.70;2.83;;;19.80;99.90;;;;;;5053590;28;20049;-67
2022/07/12 04:56:28;;;;;;;4.57;2.53;;;19.80;99.90;;;;;;5052840;28;20052;-68
2022/07/12 04:58:55;;;;;;;6.53;2.33;;;19.90;99.90;;;;;;5052755;28;20095;-68
2022/07/12 05:01:28;;;;;;;4.13;2.85;;;19.90;99.90;;;;;;5053840;28;20041;-67
2022/07/12 05:03:55;;;;;;;3.65;2.70;;;20.00;99.90;;;;;;5053391;28;20099;-68
2022/07/12 05:06:22;;;;;;;5.50;3.15;;;20.00;99.90;;;;;;5055186;28;20040;-67
2022/07/12 05:08:49;;;;;;;5.80;2.75;;;20.00;99.90;;;;;;5060620;28;20477;-67
2022/07/12 05:11:16;;;;;;;3.75;2.42;;;20.10;99.90;;;;;;5061266;28;20037;-67
2022/07/12 05:13:43;;;;;;;5.82;3.03;;;20.10;99.90;;;;;;5063384;28;20048;-70
2022/07/12 05:16:10;;;;;;;4.35;2.53;;;20.10;99.90;;;;;;5061959;28;20052;-68
2022/07/12 05:18:37;;;;;;;5.18;2.55;;;20.20;99.90;;;;;;5056015;28;20036;-68
2022/07/12 05:21:04;;;;;;;5.53;3.08;;;20.20;99.90;;;;;;5055886;28;20457;-68
2022/07/12 05:23:31;;;;;;;5.00;2.40;;;20.20;99.90;;;;;;5056126;28;20041;-68
2022/07/12 05:25:58;;;;;;;6.57;2.92;;;20.30;99.90;;;;;;5056172;28;20041;-68
2022/07/12 05:28:25;;;;;;;2.97;2.50;;;20.30;99.90;;;;;;5055000;28;20041;-68
2022/07/12 05:30:52;;;;;;;4.45;2.53;;;20.40;99.90;;;;;;5055935;28;20468;-67
2022/07/12 05:33:19;;;;;;;3.95;2.85;;;20.40;99.90;;;;;;5055878;28;20053;-68
2022/07/12 05:35:47;;;;;;;5.57;2.85;;;20.50;99.90;;;;;;5055480;28;20055;-68
2022/07/12 05:38:14;;;;;;;5.07;2.70;;;20.60;99.90;;;;;;5055679;28;20469;-68
2022/07/12 05:40:40;;;;;;;8.23;3.00;;;20.70;99.90;;;;;;5054892;28;20075;-68
2022/07/12 05:43:07;;;;;;;5.78;2.70;;;20.70;99.90;;;;;;5056745;28;20353;-68
2022/07/12 05:45:34;;;;;;;11.27;3.05;;;20.90;99.90;;;;;;5056033;28;20051;-67
2022/07/12 05:48:01;;;;;;;6.40;3.40;;;20.90;99.90;;;;;;5055178;28;20041;-68
2022/07/12 05:50:28;;;;;;;3.85;2.72;;;21.00;99.90;;;;;;5054789;28;20094;-68
2022/07/12 05:55:41;;;;;;;5.13;2.95;;;21.10;99.90;;;;;;5056780;28;20044;-69
2022/07/12 05:58:08;;;;;;;17.38;15.15;;;21.20;99.90;;;;;;5056367;28;20041;-70
2022/07/12 06:00:35;;;;;;;12.52;9.63;;;21.30;99.90;;;;;;5055816;28;20227;-68
2022/07/12 06:03:02;;;;;;;8.55;7.40;;;21.50;99.90;;;;;;5055178;28;20041;-66
2022/07/12 06:05:29;;;;;;;6.50;3.85;;;21.70;99.90;;;;;;5056245;28;20045;-66
2022/07/12 06:07:57;;;;;;;15.20;11.80;;;22.00;99.90;;;;;;5055399;28;20045;-67
2022/07/12 06:10:24;;;;;;;8.30;5.30;;;22.30;99.90;;;;;;5055608;28;20450;-66
2022/07/12 06:12:50;;;;;;;5.20;2.72;;;22.60;99.90;;;;;;5054032;28;20048;-65
2022/07/12 06:15:18;;;;;;;13.13;2.90;;;22.70;99.90;;;;;;5055839;28;20041;-68
2022/07/12 06:17:45;;;;;;;6.43;3.05;;;22.90;99.90;;;;;;5053996;28;20392;-68
2022/07/12 06:20:12;;;;;;;4.75;2.60;;;22.90;99.90;;;;;;5055541;28;20078;-68
2022/07/12 06:22:39;;;;;;;6.93;3.40;;;22.90;99.90;;;;;;5053949;28;20045;-69
2022/07/12 06:25:06;;;;;;;48.60;43.55;;;22.90;99.90;;;;;;5055107;28;20041;-72
2022/07/12 06:27:53;;;;;;;15.15;13.65;;;22.90;99.90;;;;;;5054869;28;20439;-64
2022/07/12 06:30:20;;;;;;;7.65;5.30;;;23.00;99.90;;;;;;5055211;28;20055;-62
2022/07/12 06:32:48;;;;;;;4.93;3.83;;;23.10;99.90;;;;;;5054991;28;20144;-62
2022/07/12 06:35:16;;;;;;;6.68;3.10;;;23.30;99.90;;;;;;5053893;28;20045;-62
2022/07/12 06:37:43;;;;;;;5.07;2.83;;;23.40;99.90;;;;;;5054829;28;20048;-68
2022/07/12 06:40:11;;;;;;;4.20;2.28;;;23.60;99.90;;;;;;5056090;28;20041;-71
2022/07/12 06:42:38;;;;;;;4.88;2.60;;;23.90;99.90;;;;;;5054995;28;20457;-71
2022/07/12 06:45:06;;;;;;;5.20;2.63;;;24.10;99.90;;;;;;5055696;28;20132;-72
2022/07/12 06:47:33;;;;;;;8.48;2.45;;;24.30;99.90;;;;;;5054559;28;20055;-69
2022/07/12 06:50:00;;;;;;;3.75;2.20;;;24.40;99.90;;;;;;5053373;28;20044;-68
2022/07/12 06:52:27;;;;;;;3.25;1.92;;;24.40;99.90;;;;;;5054570;28;20051;-69
2022/07/12 06:54:57;;;;;;;2.42;1.90;;;24.50;99.90;;;;;;5054448;28;20041;-69
2022/07/12 06:57:26;;;;;;;4.07;2.17;;;24.60;99.90;;;;;;5037376;28;20071;-68
2022/07/12 06:59:54;;;;;;;3.83;2.28;;;24.60;99.90;;;;;;5054485;28;20143;-70
2022/07/12 07:02:21;;;;;;;7.45;2.75;;;24.60;99.90;;;;;;5055667;28;20045;-70
2022/07/12 07:04:48;;;;;;;6.10;2.10;;;24.60;99.90;;;;;;5053122;28;20123;-69
2022/07/12 07:07:15;;;;;;;3.38;2.00;;;24.60;99.90;;;;;;5054277;28;20051;-64
2022/07/12 07:09:43;;;;;;;5.07;2.35;;;24.70;99.90;;;;;;5054004;28;20047;-65
2022/07/12 07:12:09;;;;;;;4.32;2.78;;;24.70;99.90;;;;;;5054079;28;20051;-66
2022/07/12 07:14:36;;;;;;;4.25;1.92;;;24.80;99.90;;;;;;5053891;28;20365;-67
2022/07/12 07:17:04;;;;;;;3.58;2.00;;;24.90;99.90;;;;;;5053116;28;20341;-67
2022/07/12 07:19:31;;;;;;;2.45;1.65;;;25.00;99.90;;;;;;5052798;28;20128;-68
2022/07/12 07:21:58;;;;;;;3.65;2.10;;;25.10;99.90;;;;;;5053899;28;20052;-68
2022/07/12 07:24:25;;;;;;;2.83;1.67;;;25.20;99.90;;;;;;5053439;28;20045;-68
2022/07/12 07:26:52;;;;;;;3.78;1.50;;;25.40;99.90;;;;;;5053788;28;20041;-65
2022/07/12 07:32:09;;;;;;;3.83;1.85;;;25.70;99.90;;;;;;5054917;28;20049;-66
2022/07/12 07:34:36;;;;;;;5.57;1.48;;;25.80;99.90;;;;;;5054267;28;20045;-66
2022/07/12 07:37:04;;;;;;;4.07;1.70;;;26.00;99.90;;;;;;5036113;28;20060;-65
2022/07/12 07:39:37;;;;;;;4.97;1.55;;;26.10;99.90;;;;;;5052646;28;20041;-67
2022/07/12 07:42:04;;;;;;;3.50;1.77;;;26.30;99.90;;;;;;5054531;28;20052;-67
2022/07/12 07:44:31;;;;;;;5.25;1.92;;;26.40;99.50;;;;;;5054219;28;20044;-65
2022/07/12 07:47:00;;;;;;;2.40;1.40;;;26.60;99.40;;;;;;5052343;28;20041;-66
2022/07/12 07:49:27;;;;;;;2.85;1.38;;;26.70;98.50;;;;;;5053434;28;20048;-67
2022/07/12 07:51:54;;;;;;;7.47;6.32;;;26.70;97.40;;;;;;5053732;28;20461;-67
2022/07/12 07:54:21;;;;;;;5.45;3.40;;;26.90;96.90;;;;;;5052714;28;20045;-66
2022/07/12 07:56:48;;;;;;;3.60;1.77;;;27.10;96.00;;;;;;5053208;28;20044;-67
2022/07/12 07:59:15;;;;;;;3.83;1.70;;;27.30;95.80;;;;;;5054177;28;20376;-65
2022/07/12 08:01:42;;;;;;;3.25;1.52;;;27.50;95.10;;;;;;5053675;28;20043;-66
2022/07/12 08:04:10;;;;;;;2.38;1.50;;;27.60;94.00;;;;;;5053433;28;20056;-66
2022/07/12 08:06:38;;;;;;;5.15;1.30;;;27.70;94.20;;;;;;5054142;28;20041;-67
2022/07/12 08:09:05;;;;;;;4.97;1.80;;;27.80;93.30;;;;;;5052302;28;20049;-66
2022/07/12 08:11:38;;;;;;;4.97;1.30;;;27.80;92.30;;;;;;5052201;28;20047;-69
2022/07/12 08:14:06;;;;;;;3.30;1.50;;;27.80;92.40;;;;;;5053541;28;20049;-67
2022/07/12 08:16:33;;;;;;;4.28;1.90;;;27.90;91.80;;;;;;5053560;28;20128;-67
2022/07/12 08:19:00;;;;;;;2.90;1.25;;;28.00;91.10;;;;;;5052065;28;20040;-66
2022/07/12 08:21:27;;;;;;;2.60;1.30;;;28.20;91.50;;;;;;5053228;28;20480;-69
2022/07/12 08:23:55;;;;;;;34.40;29.02;;;28.30;91.00;;;;;;5053799;28;20055;-67
2022/07/12 08:26:22;;;;;;;4.68;3.40;;;28.40;90.80;;;;;;5053374;28;20045;-71
2022/07/12 08:28:50;;;;;;;5.75;2.53;;;28.60;90.10;;;;;;5054021;28;20053;-74
2022/07/12 08:31:17;;;;;;;2.90;1.53;;;28.60;89.40;;;;;;5054067;28;20094;-72
2022/07/12 08:33:44;;;;;;;5.03;1.25;;;28.60;89.40;;;;;;5054241;28;20045;-72
2022/07/12 08:36:11;;;;;;;5.88;1.40;;;28.80;88.60;;;;;;5051601;28;20053;-72
2022/07/12 08:38:38;;;;;;;2.15;1.20;;;29.00;89.00;;;;;;5051844;28;20041;-72
2022/07/12 08:41:05;;;;;;;1.70;1.00;;;29.20;86.60;;;;;;5054241;28;20043;-72
2022/07/12 08:43:34;;;;;;;4.20;1.63;;;29.30;85.20;;;;;;5056912;28;20044;-72
2022/07/12 08:46:05;;;;;;;4.30;1.40;;;29.50;85.10;;;;;;5056855;28;20041;-72
2022/07/12 08:48:34;;;;;;;2.83;1.40;;;29.50;83.60;;;;;;5055706;28;20120;-72
2022/07/12 08:51:22;;;;;;;6.63;1.85;;;29.50;84.40;;;;;;5057209;28;20067;-72
2022/07/12 08:54:03;;;;;;;;;;;29.50;82.30;;;;;;5058453;28;20049;-72
2022/07/12 08:56:34;;;;;;;4.35;1.55;;;29.20;81.40;;;;;;5090044;28;20283;-72
2022/07/12 08:59:11;;;;;;;6.32;1.70;;;29.00;82.30;;;;;;5057797;28;20047;-72
2022/07/12 09:01:45;;;;;;;3.60;1.23;;;28.90;81.60;;;;;;5058569;28;20056;-72
2022/07/12 09:04:23;;;;;;;6.57;1.65;;;28.70;81.70;;;;;;5059288;28;20045;-72
2022/07/12 09:06:50;;;;;;;2.03;1.35;;;28.60;83.40;;;;;;5057111;28;20487;-72
2022/07/12 09:09:32;;;;;;;2.88;1.73;;;28.50;84.00;;;;;;5057108;28;20045;-72
2022/07/12 09:12:00;;;;;;;2.92;1.60;;;28.30;83.90;;;;;;5056812;28;20135;-72
2022/07/12 09:14:27;;;;;;;3.72;1.33;;;28.20;84.70;;;;;;5056397;28;20071;-72
2022/07/12 09:17:00;;;;;;;3.78;1.50;;;28.20;84.70;;;;;;5055533;28;20389;-72
2022/07/12 09:19:27;;;;;;;2.90;1.95;;;28.20;84.50;;;;;;5057456;28;20037;-72
2022/07/12 09:21:54;;;;;;;4.40;1.70;;;28.20;85.00;;;;;;5038580;28;20041;-72
2022/07/12 09:24:25;;;;;;;2.45;1.40;;;28.30;84.90;;;;;;5055542;28;20045;-72
2022/07/12 09:27:03;;;;;;;4.28;1.50;;;28.30;84.10;;;;;;5038756;28;20477;-72
2022/07/12 09:29:31;;;;;;;4.35;1.33;;;28.30;83.90;;;;;;5056418;28;20045;-72
2022/07/12 09:37:29;;;;;;;3.08;1.73;;;28.80;82.60;;;;;;5056453;28;20068;-72
2022/07/12 09:39:56;;;;;;;3.97;1.50;;;29.00;81.30;;;;;;5055276;28;20051;-73
2022/07/12 09:42:23;;;;;;;2.50;1.30;;;29.10;81.20;;;;;;5056783;28;20041;-73
2022/07/12 09:44:55;;;;;;;3.50;1.35;;;29.20;79.70;;;;;;5055703;28;20306;-73
2022/07/12 09:47:22;;;;;;;2.08;1.50;;;29.30;79.40;;;;;;5054674;28;20040;-72
2022/07/12 09:49:49;;;;;;;3.15;1.30;;;29.40;79.60;;;;;;5054977;28;20048;-73
2022/07/12 09:52:21;;;;;;;4.03;1.40;;;29.40;78.30;;;;;;5037595;28;20499;-72
2022/07/12 09:54:52;;;;;;;3.28;1.30;;;29.40;77.30;;;;;;5055738;28;20060;-72
2022/07/12 09:57:27;;;;;;;3.05;1.30;;;29.50;77.10;;;;;;5054602;28;20052;-72
2022/07/12 09:59:54;;;;;;;4.22;1.42;;;29.60;77.00;;;;;;5054515;28;20044;-72
2022/07/12 10:02:21;;;;;;;2.08;1.38;;;29.60;77.30;;;;;;5055677;28;20491;-72
2022/07/12 10:04:48;;;;;;;5.30;1.60;;;29.70;76.60;;;;;;5055563;28;20045;-72
2022/07/12 10:07:16;;;;;;;2.95;1.60;;;29.70;76.30;;;;;;5054682;28;20040;-72
2022/07/12 10:09:44;;;;;;;4.55;1.50;;;29.80;76.20;;;;;;5054246;28;20048;-73
2022/07/12 10:12:11;;;;;;;3.45;1.25;;;29.80;76.70;;;;;;5054463;28;20052;-73
2022/07/12 10:14:38;;;;;;;4.95;1.50;;;29.90;76.20;;;;;;5054379;28;20071;-73
2022/07/12 10:17:09;;;;;;;3.45;1.40;;;30.00;75.70;;;;;;5054164;28;20492;-73
2022/07/12 10:19:36;;;;;;;5.97;1.42;;;30.00;75.90;;;;;;5054151;28;20473;-73
2022/07/12 10:22:04;;;;;;;2.72;1.70;;;30.10;75.30;;;;;;5055467;28;20040;-73
2022/07/12 10:24:44;;;;;;;3.80;1.50;;;30.20;75.30;;;;;;5053824;28;20049;-72
2022/07/12 10:27:14;;;;;;;7.18;1.50;;;30.20;75.60;;;;;;5055129;28;20510;-72
2022/07/12 10:29:45;;;;;;;3.47;1.55;;;30.40;75.80;;;;;;5054971;28;20041;-72
2022/07/12 10:32:25;;;;;;;2.80;1.55;;;30.50;75.40;;;;;;5056061;28;20045;-73
2022/07/12 10:35:05;;;;;;;2.00;1.40;;;30.50;73.80;;;;;;5053739;28;20049;-72
2022/07/12 10:37:33;;;;;;;5.13;1.50;;;30.60;74.50;;;;;;5054024;28;20073;-72
2022/07/12 10:40:19;;;;;;;3.57;1.60;;;30.50;74.80;;;;;;5053955;28;20048;-72
2022/07/12 10:43:10;;;;;;;3.20;1.48;;;30.50;74.70;;;;;;5054027;28;20079;-72
2022/07/12 10:45:38;;;;;;;3.63;1.92;;;30.60;74.60;;;;;;5052172;28;20049;-72
2022/07/12 10:48:08;;;;;;;2.60;1.60;;;30.60;74.80;;;;;;5055175;28;20424;-71
2022/07/12 10:50:55;;;;;;;2.78;1.20;;;30.70;74.40;;;;;;5055629;28;20044;-73
2022/07/12 10:53:30;;;;;;;13.50;12.10;;;30.80;74.10;;;;;;5055705;28;20045;-65
2022/07/12 10:56:08;;;;;;;4.93;2.78;;;30.80;73.10;;;;;;5053371;28;20051;-67
2022/07/12 10:58:35;;;;;;;3.30;2.10;;;30.80;73.40;;;;;;5054558;28;20041;-71
2022/07/12 11:01:03;;;;;;;5.55;2.95;;;31.00;74.70;;;;;;5055260;28;20052;-67
2022/07/12 11:03:45;;;;;;;6.13;2.58;;;31.30;74.50;;;;;;5053390;28;20051;-68
2022/07/12 11:06:22;;;;;;;4.53;2.20;;;31.50;71.80;;;;;;5053114;28;20064;-60
2022/07/12 11:08:53;;;;;;;5.80;3.28;;;31.50;73.00;;;;;;5053808;28;20381;-66
2022/07/12 11:11:21;;;;;;;3.90;2.40;;;31.20;72.30;;;;;;5055710;28;20048;-67
2022/07/12 11:13:48;;;;;;;7.47;3.20;;;31.20;72.70;;;;;;5054121;28;20049;-67
2022/07/12 11:16:17;;;;;;;3.17;2.08;;;31.10;73.10;;;;;;5036616;28;20067;-67
2022/07/12 11:18:44;;;;;;;1.95;1.58;;;31.10;73.20;;;;;;5054424;28;20044;-68
2022/07/12 11:21:11;;;;;;;4.78;1.65;;;31.20;72.30;;;;;;5054003;28;20504;-67
2022/07/12 11:23:40;;;;;;;3.03;1.33;;;31.20;72.30;;;;;;5052944;28;20045;-68
2022/07/12 11:26:08;;;;;;;2.78;1.58;;;31.10;72.30;;;;;;5052666;28;20043;-67
2022/07/12 11:28:35;;;;;;;3.80;1.37;;;31.30;72.60;;;;;;5052726;28;20388;-68
2022/07/12 11:31:10;;;;;;;6.43;1.90;;;31.50;72.50;;;;;;5053881;28;20041;-69
2022/07/12 11:33:41;;;;;;;2.15;1.48;;;31.60;72.00;;;;;;5053764;28;20368;-69
2022/07/12 11:36:10;;;;;;;3.58;1.50;;;31.60;72.60;;;;;;5053176;28;20049;-69
2022/07/12 11:38:39;;;;;;;3.05;1.63;;;31.80;72.20;;;;;;5053788;28;20476;-70
2022/07/12 11:41:11;;;;;;;1.95;1.40;;;31.90;70.50;;;;;;5036820;28;20118;-70
2022/07/12 11:43:38;;;;;;;2.60;1.25;;;32.10;68.50;;;;;;5036360;28;20037;-70
2022/07/12 11:46:06;;;;;;;2.28;1.33;;;32.30;67.70;;;;;;5054447;28;20044;-70
2022/07/12 11:48:33;;;;;;;2.77;1.57;;;32.30;67.30;;;;;;5053981;28;20049;-68
2022/07/12 11:51:02;;;;;;;2.15;1.20;;;32.20;67.30;;;;;;5053460;28;20076;-64
2022/07/12 11:53:29;;;;;;;2.05;1.40;;;32.10;67.10;;;;;;5052739;28;20041;-63
2022/07/12 11:55:58;;;;;;;4.90;1.40;;;32.20;67.80;;;;;;5053731;28;20045;-67
2022/07/12 11:58:26;;;;;;;5.20;1.50;;;32.30;67.60;;;;;;5053439;28;20040;-67
2022/07/12 12:00:53;;;;;;;12.32;11.05;;;32.40;65.40;;;;;;5052607;28;20041;-69
2022/07/12 12:03:21;;;;;;;4.03;3.05;;;32.30;65.00;;;;;;5052446;28;20053;-63
2022/07/12 12:05:53;;;;;;;4.60;1.90;;;32.30;66.20;;;;;;5053367;28;20041;-69
2022/07/12 12:08:20;;;;;;;5.47;1.55;;;32.10;65.70;;;;;;5054076;28;20049;-68
2022/07/12 12:10:54;;;;;;;3.22;1.42;;;32.10;66.40;;;;;;5053727;28;20041;-69
2022/07/12 12:13:21;;;;;;;2.42;1.50;;;31.80;65.90;;;;;;5053180;28;20128;-53
2022/07/12 12:15:52;;;;;;;3.35;1.50;;;31.40;65.70;;;;;;5053756;28;20059;-53
2022/07/12 12:18:34;;;;;;;2.88;1.70;;;31.30;66.00;;;;;;5053025;28;20459;-58
2022/07/12 12:21:06;;;;;;;2.00;1.23;;;31.30;65.80;;;;;;5054024;28;20124;-58
2022/07/12 12:23:33;;;;;;;2.60;1.40;;;31.30;66.20;;;;;;5054122;28;20045;-57
2022/07/12 12:26:16;;;;;;;2.65;1.35;;;31.50;65.30;;;;;;5052986;28;20045;-59
2022/07/12 12:28:44;;;;;;;1.60;1.08;;;31.90;64.80;;;;;;5054069;28;20127;-59
2022/07/12 12:31:12;;;;;;;3.75;1.52;;;32.00;64.70;;;;;;5053048;28;20047;-58
2022/07/12 12:33:51;;;;;;;3.65;1.67;;;32.10;64.30;;;;;;5053237;28;20040;-58
2022/07/12 12:36:28;;;;;;;3.30;1.55;;;32.00;63.90;;;;;;5053251;28;20045;-58
2022/07/12 12:38:56;;;;;;;2.88;1.50;;;31.80;64.10;;;;;;5053892;28;20044;-60
2022/07/12 12:41:24;;;;;;;4.45;1.88;;;31.70;64.60;;;;;;5052246;28;20045;-60
2022/07/12 12:44:00;;;;;;;2.03;1.23;;;31.70;65.30;;;;;;5052870;28;20049;-59
2022/07/12 12:47:30;;;;;;;1.83;1.10;;;31.80;64.90;;;;;;5052782;28;20049;-59
2022/07/12 12:49:50;;;;;;;3.03;1.45;;;31.80;64.50;;;;;;5053024;28;20507;-56
2022/07/12 12:52:24;;;;;;;4.65;2.08;;;31.90;64.70;;;;;;5052978;28;20041;-53
2022/07/12 12:54:51;;;;;;;;;;;31.90;64.70;;;;;;5053396;28;20059;-56
2022/07/12 12:57:18;;;;;;;1.58;1.08;;;32.00;64.50;;;;;;5053120;28;19921;-55
2022/07/12 12:59:45;;;;;;;3.90;1.20;;;32.00;65.20;;;;;;5053556;28;20115;-53
2022/07/12 13:02:11;;;;;;;4.03;1.23;;;32.00;64.70;;;;;;5052957;28;20052;-64
2022/07/12 13:04:39;;;;;;;2.67;1.27;;;31.90;64.80;;;;;;5052619;28;20041;-55
2022/07/12 13:07:06;;;;;;;2.42;1.27;;;31.90;65.00;;;;;;5052718;28;20045;-55